createdAt,value
2018-09-09T00:00:23.421Z,101461.16
2018-09-09T00:02:49.501Z,101460.73
2018-09-09T00:05:15.679Z,101460.66
2018-09-09T00:07:41.624Z,101467.66
2018-09-09T00:10:07.579Z,101463.68
2018-09-09T00:12:33.607Z,101469.94
2018-09-09T00:14:59.568Z,101462.19
2018-09-09T00:17:25.511Z,101462.55
2018-09-09T00:19:51.708Z,101468.91
2018-09-09T00:22:17.712Z,101467.59
2018-09-09T00:24:43.652Z,101464.44
2018-09-09T00:27:09.595Z,101459.51
2018-09-09T00:29:35.557Z,101466.23
2018-09-09T00:32:01.512Z,101460.97
2018-09-09T00:34:27.470Z,101460.33
2018-09-09T00:36:53.489Z,101454.44
2018-09-09T00:39:19.443Z,101447.48
2018-09-09T00:41:45.389Z,101460.73
2018-09-09T00:44:11.360Z,101451.06
2018-09-09T00:46:37.323Z,101457.05
2018-09-09T00:49:03.272Z,101454.34
2018-09-09T00:51:29.217Z,101453.98
2018-09-09T00:53:55.196Z,101461.30
2018-09-09T00:56:21.174Z,101459.64
2018-09-09T00:58:47.132Z,101454.97
2018-09-09T01:01:13.082Z,101456.12
2018-09-09T01:03:39.048Z,101460.36
2018-09-09T01:06:05.008Z,101461.36
2018-09-09T01:08:30.980Z,101458.12
2018-09-09T01:10:56.924Z,101451.49
2018-09-09T01:13:22.900Z,101445.12
2018-09-09T01:15:48.852Z,101443.80
2018-09-09T01:18:14.873Z,101437.64
2018-09-09T01:20:40.815Z,101436.52
2018-09-09T01:23:06.776Z,101432.41
2018-09-09T01:25:32.757Z,101428.86
2018-09-09T01:27:58.689Z,101422.10
2018-09-09T01:30:24.642Z,101411.31
2018-09-09T01:32:50.592Z,101417.23
2018-09-09T01:35:16.568Z,101428.53
2018-09-09T01:37:42.507Z,101442.16
2018-09-09T01:40:08.468Z,101443.84
2018-09-09T01:42:34.440Z,101453.94
2018-09-09T01:45:00.416Z,101461.53
2018-09-09T01:47:26.355Z,101461.53
2018-09-09T01:49:52.307Z,101470.67
2018-09-09T01:52:18.282Z,101467.63
2018-09-09T01:54:44.327Z,101466.63
2018-09-09T01:57:10.266Z,101472.29
2018-09-09T01:59:36.269Z,101465.04
2018-09-09T02:02:02.220Z,101474.91
2018-09-09T02:04:28.184Z,101470.94
2018-09-09T02:06:54.140Z,101471.27
2018-09-09T02:09:20.084Z,101473.52
2018-09-09T02:11:46.035Z,101470.30
2018-09-09T02:14:11.988Z,101463.31
2018-09-09T02:16:37.939Z,101458.31
2018-09-09T02:19:03.915Z,101457.28
2018-09-09T02:21:29.918Z,101450.73
2018-09-09T02:23:55.887Z,101441.52
2018-09-09T02:26:21.840Z,101448.28
2018-09-09T02:28:47.816Z,101443.14
2018-09-09T02:31:13.839Z,101441.72
2018-09-09T02:33:39.796Z,101433.00
2018-09-09T02:36:05.793Z,101433.77
2018-09-09T02:38:31.766Z,101443.73
2018-09-09T02:40:57.731Z,101450.46
2018-09-09T02:43:23.689Z,101451.49
2018-09-09T02:45:49.646Z,101447.78
2018-09-09T02:48:15.601Z,101452.72
2018-09-09T02:50:41.571Z,101463.61
2018-09-09T02:53:07.583Z,101474.67
2018-09-09T02:55:33.536Z,101474.52
2018-09-09T02:57:59.509Z,101471.86
2018-09-09T03:00:25.528Z,101469.05
2018-09-09T03:02:51.575Z,101469.05
2018-09-09T03:05:17.524Z,101471.80
2018-09-09T03:07:43.540Z,101471.80
2018-09-09T03:10:09.503Z,101470.67
2018-09-09T03:12:35.468Z,101474.78
2018-09-09T03:15:01.487Z,101480.47
2018-09-09T03:17:27.452Z,101475.67
2018-09-09T03:19:53.395Z,101468.31
2018-09-09T03:22:19.336Z,101475.34
2018-09-09T03:24:45.296Z,101463.22
2018-09-09T03:27:11.247Z,101462.78
2018-09-09T03:29:37.200Z,101463.81
2018-09-09T03:32:03.214Z,101472.79
2018-09-09T03:34:29.167Z,101465.57
2018-09-09T03:36:55.130Z,101468.28
2018-09-09T03:39:21.075Z,101467.23
2018-09-09T03:41:47.086Z,101459.24
2018-09-09T03:44:13.130Z,101459.28
2018-09-09T03:46:39.102Z,101456.73
2018-09-09T03:49:05.073Z,101452.12
2018-09-09T03:51:31.040Z,101445.16
2018-09-09T03:53:56.980Z,101444.07
2018-09-09T03:56:22.944Z,101440.69
2018-09-09T03:58:48.889Z,101446.63
2018-09-09T04:01:14.840Z,101446.82
2018-09-09T04:03:40.820Z,101438.88
2018-09-09T04:06:06.790Z,101435.69
2018-09-09T04:08:32.748Z,101442.84
2018-09-09T04:10:58.720Z,101441.92
2018-09-09T04:13:24.684Z,101442.41
2018-09-09T04:15:50.632Z,101445.36
2018-09-09T04:18:16.636Z,101449.03
2018-09-09T04:20:42.583Z,101443.34
2018-09-09T04:23:08.536Z,101442.22
2018-09-09T04:25:34.489Z,101454.34
2018-09-09T04:28:00.444Z,101456.19
2018-09-09T04:30:26.403Z,101455.47
2018-09-09T04:32:52.380Z,101448.28
2018-09-09T04:35:18.416Z,101446.52
2018-09-09T04:37:44.379Z,101449.27
2018-09-09T04:40:10.333Z,101454.57
2018-09-09T04:42:36.337Z,101460.37
2018-09-09T04:45:02.291Z,101478.91
2018-09-09T04:47:28.239Z,101478.09
2018-09-09T04:49:54.186Z,101473.41
2018-09-09T04:52:20.137Z,101475.54
2018-09-09T04:54:46.099Z,101472.42
2018-09-09T04:57:12.066Z,101477.72
2018-09-09T04:59:38.024Z,101485.73
2018-09-09T05:02:03.975Z,101487.29
2018-09-09T05:04:29.933Z,101481.36
2018-09-09T05:06:55.871Z,101489.81
2018-09-09T05:09:22.012Z,101490.97
2018-09-09T05:11:47.957Z,101503.72
2018-09-09T05:14:13.899Z,101502.70
2018-09-09T05:16:39.864Z,101501.67
2018-09-09T05:19:06.000Z,101501.57
2018-09-09T05:21:32.084Z,101495.58
2018-09-09T05:23:58.044Z,101492.30
2018-09-09T05:26:24.005Z,101493.33
2018-09-09T05:28:50.068Z,101495.11
2018-09-09T05:31:16.011Z,101493.78
2018-09-09T05:33:41.996Z,101492.59
2018-09-09T05:36:07.957Z,101495.73
2018-09-09T05:38:33.918Z,101498.09
2018-09-09T05:40:59.870Z,101493.42
2018-09-09T05:43:25.832Z,101493.55
2018-09-09T05:45:51.792Z,101491.67
2018-09-09T05:48:17.737Z,101504.52
2018-09-09T05:50:43.715Z,101504.91
2018-09-09T05:53:09.651Z,101506.14
2018-09-09T05:55:35.621Z,101509.68
2018-09-09T05:58:01.566Z,101509.23
2018-09-09T06:00:27.584Z,101507.16
2018-09-09T06:02:53.533Z,101521.23
2018-09-09T06:05:19.477Z,101519.42
2018-09-09T06:07:45.431Z,101508.83
2018-09-09T06:10:11.393Z,101514.62
2018-09-09T06:12:37.419Z,101522.63
2018-09-09T06:15:03.362Z,101523.59
2018-09-09T06:17:29.316Z,101524.88
2018-09-09T06:19:55.288Z,101525.84
2018-09-09T06:22:21.233Z,101532.67
2018-09-09T06:24:47.249Z,101530.18
2018-09-09T06:27:13.288Z,101534.20
2018-09-09T06:29:39.308Z,101542.09
2018-09-09T06:32:05.250Z,101540.98
2018-09-09T06:34:31.199Z,101547.52
2018-09-09T06:36:57.152Z,101551.02
2018-09-09T06:39:23.109Z,101548.16
2018-09-09T06:41:49.052Z,101540.91
2018-09-09T06:44:14.985Z,101542.86
2018-09-09T06:46:40.967Z,101543.89
2018-09-09T06:49:06.912Z,101541.42
2018-09-09T06:51:32.992Z,101545.87
2018-09-09T06:53:59.000Z,101539.16
2018-09-09T06:56:25.220Z,101546.61
2018-09-09T06:58:51.184Z,101545.51
2018-09-09T07:01:17.155Z,101542.02
2018-09-09T07:03:43.099Z,101542.14
2018-09-09T07:06:09.082Z,101544.39
2018-09-09T07:08:35.039Z,101542.94
2018-09-09T07:11:01.124Z,101539.18
2018-09-09T07:13:26.953Z,101545.51
2018-09-09T07:15:52.915Z,101541.73
2018-09-09T07:18:18.896Z,101543.06
2018-09-09T07:20:44.919Z,101539.59
2018-09-09T07:23:10.887Z,101535.20
2018-09-09T07:25:36.845Z,101537.06
2018-09-09T07:28:02.815Z,101538.34
2018-09-09T07:30:28.800Z,101540.22
2018-09-09T07:32:54.749Z,101536.61
2018-09-09T07:35:20.756Z,101542.74
2018-09-09T07:37:46.714Z,101550.27
2018-09-09T07:40:12.910Z,101546.02
2018-09-09T07:42:38.850Z,101556.99
2018-09-09T07:45:04.825Z,101563.36
2018-09-09T07:47:30.770Z,101568.11
2018-09-09T07:49:56.713Z,101564.41
2018-09-09T07:52:22.671Z,101570.33
2018-09-09T07:54:48.610Z,101568.78
2018-09-09T07:57:14.667Z,101567.52
2018-09-09T07:59:40.611Z,101567.89
2018-09-09T08:02:06.584Z,101567.27
2018-09-09T08:04:32.546Z,101567.98
2018-09-09T08:06:58.528Z,101573.61
2018-09-09T08:09:24.511Z,101578.91
2018-09-09T08:11:50.483Z,101575.42
2018-09-09T08:14:16.428Z,101579.23
2018-09-09T08:16:42.375Z,101578.12
2018-09-09T08:19:08.340Z,101578.98
2018-09-09T08:21:34.319Z,101577.20
2018-09-09T08:24:00.278Z,101574.30
2018-09-09T08:26:26.315Z,101574.10
2018-09-09T08:28:52.280Z,101571.09
2018-09-09T08:31:18.316Z,101569.34
2018-09-09T08:33:44.312Z,101567.48
2018-09-09T08:36:10.278Z,101571.71
2018-09-09T08:38:36.242Z,101570.53
2018-09-09T08:41:02.180Z,101577.98
2018-09-09T08:43:28.132Z,101575.47
2018-09-09T08:45:54.076Z,101581.54
2018-09-09T08:48:20.034Z,101577.90
2018-09-09T08:50:46.028Z,101581.27
2018-09-09T08:53:11.978Z,101586.97
2018-09-09T08:55:37.933Z,101583.58
2018-09-09T08:58:03.941Z,101584.41
2018-09-09T09:00:29.892Z,101579.11
2018-09-09T09:02:55.998Z,101578.77
2018-09-09T09:05:22.051Z,101575.55
2018-09-09T09:07:48.094Z,101576.25
2018-09-09T09:10:13.976Z,101582.09
2018-09-09T09:12:39.940Z,101572.48
2018-09-09T09:15:05.922Z,101575.47
2018-09-09T09:17:31.945Z,101579.45
2018-09-09T09:19:57.977Z,101575.84
2018-09-09T09:22:23.928Z,101581.25
2018-09-09T09:24:49.894Z,101576.95
2018-09-09T09:27:15.835Z,101586.03
2018-09-09T09:29:41.780Z,101582.59
2018-09-09T09:32:07.798Z,101582.46
2018-09-09T09:34:33.835Z,101582.58
2018-09-09T09:36:59.863Z,101589.13
2018-09-09T09:39:25.924Z,101584.41
2018-09-09T09:41:51.863Z,101581.34
2018-09-09T09:44:17.836Z,101578.12
2018-09-09T09:46:43.872Z,101570.24
2018-09-09T09:49:09.919Z,101576.87
2018-09-09T09:51:35.936Z,101577.86
2018-09-09T09:54:01.895Z,101570.38
2018-09-09T09:56:27.880Z,101576.13
2018-09-09T09:58:53.844Z,101571.56
2018-09-09T10:01:19.818Z,101568.92
2018-09-09T10:03:45.884Z,101568.99
2018-09-09T10:06:12.309Z,101569.13
2018-09-09T10:08:38.317Z,101576.73
2018-09-09T10:11:04.297Z,101570.38
2018-09-09T10:13:30.293Z,101586.06
2018-09-09T10:15:56.336Z,101587.59
2018-09-09T10:18:22.560Z,101580.29
2018-09-09T10:20:48.600Z,101583.70
2018-09-09T10:23:14.623Z,101579.23
2018-09-09T10:25:40.596Z,101582.03
2018-09-09T10:28:06.569Z,101584.98
2018-09-09T10:30:32.611Z,101582.96
2018-09-09T10:32:58.556Z,101583.48
2018-09-09T10:35:24.632Z,101585.59
2018-09-09T10:37:50.748Z,101586.34
2018-09-09T10:40:16.724Z,101580.91
2018-09-09T10:42:42.660Z,101577.56
2018-09-09T10:45:08.832Z,101575.20
2018-09-09T10:47:34.830Z,101575.41
2018-09-09T10:50:00.769Z,101570.53
2018-09-09T10:52:26.744Z,101569.25
2018-09-09T10:54:52.696Z,101572.77
2018-09-09T10:57:18.723Z,101577.68
2018-09-09T10:59:44.764Z,101574.98
2018-09-09T11:02:10.712Z,101568.83
2018-09-09T11:04:36.668Z,101574.11
2018-09-09T11:07:02.707Z,101565.75
2018-09-09T11:09:28.627Z,101558.66
2018-09-09T11:11:54.601Z,101564.85
2018-09-09T11:14:20.572Z,101555.73
2018-09-09T11:16:46.531Z,101559.33
2018-09-09T11:19:12.504Z,101558.61
2018-09-09T11:21:38.463Z,101554.95
2018-09-09T11:24:04.549Z,101557.47
2018-09-09T11:26:30.475Z,101559.75
2018-09-09T11:28:56.458Z,101555.31
2018-09-09T11:31:22.424Z,101550.48
2018-09-09T11:33:48.393Z,101553.79
2018-09-09T11:36:14.364Z,101552.92
2018-09-09T11:38:40.389Z,101556.59
2018-09-09T11:41:06.340Z,101549.92
2018-09-09T11:43:32.364Z,101549.00
2018-09-09T11:45:58.398Z,101544.19
2018-09-09T11:48:24.437Z,101551.54
2018-09-09T11:50:50.377Z,101540.87
2018-09-09T11:53:16.419Z,101539.81
2018-09-09T11:55:42.348Z,101538.29
2018-09-09T11:58:08.311Z,101530.64
2018-09-09T12:00:34.275Z,101528.58
2018-09-09T12:03:00.279Z,101525.00
2018-09-09T12:05:26.237Z,101530.50
2018-09-09T12:07:52.186Z,101525.66
2018-09-09T12:10:18.164Z,101521.16
2018-09-09T12:12:44.101Z,101530.50
2018-09-09T12:15:10.078Z,101531.53
2018-09-09T12:17:36.045Z,101527.69
2018-09-09T12:20:02.028Z,101527.88
2018-09-09T12:22:27.987Z,101525.39
2018-09-09T12:24:53.955Z,101520.83
2018-09-09T12:27:19.908Z,101520.53
2018-09-09T12:29:45.860Z,101512.91
2018-09-09T12:32:11.871Z,101513.91
2018-09-09T12:34:37.777Z,101518.21
2018-09-09T12:37:03.743Z,101513.97
2018-09-09T12:39:29.703Z,101515.92
2018-09-09T12:41:55.656Z,101516.15
2018-09-09T12:44:21.624Z,101501.67
2018-09-09T12:46:47.570Z,101499.71
2018-09-09T12:49:13.528Z,101498.30
2018-09-09T12:51:39.489Z,101497.69
2018-09-09T12:54:05.444Z,101506.98
2018-09-09T12:56:31.406Z,101504.13
2018-09-09T12:58:57.357Z,101509.43
2018-09-09T13:01:23.310Z,101509.23
2018-09-09T13:03:49.248Z,101509.92
2018-09-09T13:06:15.204Z,101508.59
2018-09-09T13:08:41.171Z,101501.47
2018-09-09T13:11:07.145Z,101509.13
2018-09-09T13:13:33.110Z,101506.48
2018-09-09T13:15:59.061Z,101503.73
2018-09-09T13:18:25.016Z,101504.19
2018-09-09T13:20:51.012Z,101503.70
2018-09-09T13:23:16.967Z,101503.30
2018-09-09T13:25:43.121Z,101505.32
2018-09-09T13:28:09.074Z,101500.02
2018-09-09T13:30:35.042Z,101498.49
2018-09-09T13:33:01.000Z,101494.34
2018-09-09T13:35:26.962Z,101500.22
2018-09-09T13:37:52.923Z,101489.05
2018-09-09T13:40:19.906Z,101492.27
2018-09-09T13:42:45.890Z,101491.44
2018-09-09T13:45:11.840Z,101490.98
2018-09-09T13:47:38.460Z,101490.82
2018-09-09T13:50:04.406Z,101488.52
2018-09-09T13:52:30.356Z,101495.18
2018-09-09T13:54:56.380Z,101490.38
2018-09-09T13:57:22.368Z,101492.06
2018-09-09T13:59:48.317Z,101490.74
2018-09-09T14:02:14.392Z,101485.50
2018-09-09T14:04:40.329Z,101482.39
2018-09-09T14:07:06.279Z,101481.09
2018-09-09T14:09:32.271Z,101479.83
2018-09-09T14:11:58.191Z,101476.78
2018-09-09T14:14:24.143Z,101477.87
2018-09-09T14:16:50.160Z,101473.63
2018-09-09T14:19:16.148Z,101469.23
2018-09-09T14:21:42.926Z,101470.16
2018-09-09T14:24:08.893Z,101466.38
2018-09-09T14:26:34.880Z,101459.25
2018-09-09T14:29:00.908Z,101456.53
2018-09-09T14:31:26.911Z,101458.99
2018-09-09T14:33:52.968Z,101451.23
2018-09-09T14:36:18.936Z,101460.45
2018-09-09T14:38:44.896Z,101459.76
2018-09-09T14:41:10.887Z,101455.13
2018-09-09T14:43:36.838Z,101459.44
2018-09-09T14:46:02.969Z,101454.88
2018-09-09T14:48:28.874Z,101451.77
2018-09-09T14:50:54.833Z,101454.38
2018-09-09T14:53:20.962Z,101455.22
2018-09-09T14:55:46.919Z,101455.38
2018-09-09T14:58:12.943Z,101456.35
2018-09-09T15:00:38.887Z,101454.58
2018-09-09T15:03:04.839Z,101457.92
2018-09-09T15:05:30.832Z,101452.42
2018-09-09T15:07:56.808Z,101453.06
2018-09-09T15:10:23.005Z,101457.72
2018-09-09T15:12:48.971Z,101448.34
2018-09-09T15:15:14.929Z,101448.50
2018-09-09T15:17:40.920Z,101450.59
2018-09-09T15:20:06.864Z,101451.59
2018-09-09T15:22:32.848Z,101449.77
2018-09-09T15:24:58.799Z,101453.37
2018-09-09T15:27:24.748Z,101449.77
2018-09-09T15:29:50.717Z,101447.64
2018-09-09T15:32:16.668Z,101448.88
2018-09-09T15:34:42.663Z,101441.76
2018-09-09T15:37:08.687Z,101440.44
2018-09-09T15:39:34.648Z,101445.17
2018-09-09T15:42:00.977Z,101447.31
2018-09-09T15:44:26.919Z,101445.17
2018-09-09T15:46:52.907Z,101449.20
2018-09-09T15:49:18.947Z,101449.28
2018-09-09T15:51:44.996Z,101446.59
2018-09-09T15:54:11.165Z,101436.84
2018-09-09T15:56:37.164Z,101442.26
2018-09-09T15:59:03.117Z,101442.53
2018-09-09T16:01:29.111Z,101440.00
2018-09-09T16:03:55.084Z,101432.88
2018-09-09T16:06:21.106Z,101430.72
2018-09-09T16:08:47.087Z,101437.02
2018-09-09T16:11:13.063Z,101431.41
2018-09-09T16:13:39.031Z,101439.50
2018-09-09T16:16:05.120Z,101432.92
2018-09-09T16:18:31.149Z,101437.90
2018-09-09T16:20:57.082Z,101443.34
2018-09-09T16:23:23.061Z,101437.41
2018-09-09T16:25:49.025Z,101443.14
2018-09-09T16:28:14.979Z,101443.89
2018-09-09T16:30:40.982Z,101437.98
2018-09-09T16:33:06.911Z,101437.20
2018-09-09T16:35:32.861Z,101435.82
2018-09-09T16:37:58.896Z,101438.14
2018-09-09T16:40:25.062Z,101433.92
2018-09-09T16:42:51.016Z,101435.49
2018-09-09T16:45:17.019Z,101445.69
2018-09-09T16:47:43.096Z,101439.11
2018-09-09T16:50:09.073Z,101440.00
2018-09-09T16:52:35.035Z,101444.47
2018-09-09T16:55:00.976Z,101441.40
2018-09-09T16:57:26.931Z,101443.66
2018-09-09T16:59:53.666Z,101440.07
2018-09-09T17:02:19.626Z,101445.61
2018-09-09T17:04:45.585Z,101440.82
2018-09-09T17:07:11.540Z,101439.11
2018-09-09T17:09:37.595Z,101439.75
2018-09-09T17:12:03.576Z,101441.48
2018-09-09T17:14:29.529Z,101442.15
2018-09-09T17:16:55.482Z,101442.52
2018-09-09T17:19:21.507Z,101436.08
2018-09-09T17:21:47.481Z,101433.37
2018-09-09T17:24:13.436Z,101442.84
2018-09-09T17:26:39.396Z,101436.59
2018-09-09T17:29:05.381Z,101441.40
2018-09-09T17:31:31.349Z,101436.57
2018-09-09T17:33:57.320Z,101445.80
2018-09-09T17:36:23.292Z,101440.07
2018-09-09T17:38:49.445Z,101439.17
2018-09-09T17:41:15.421Z,101440.48
2018-09-09T17:43:41.388Z,101448.64
2018-09-09T17:46:07.376Z,101447.06
2018-09-09T17:48:33.331Z,101442.64
2018-09-09T17:50:59.295Z,101448.84
2018-09-09T17:53:25.262Z,101450.30
2018-09-09T17:55:51.206Z,101450.67
2018-09-09T17:58:17.149Z,101451.30
2018-09-09T18:00:43.198Z,101451.89
2018-09-09T18:03:09.161Z,101457.09
2018-09-09T18:05:35.136Z,101455.27
2018-09-09T18:08:01.124Z,101452.55
2018-09-09T18:10:27.156Z,101456.66
2018-09-09T18:12:53.139Z,101448.39
2018-09-09T18:15:19.112Z,101450.34
2018-09-09T18:17:45.060Z,101454.50
2018-09-09T18:20:11.164Z,101452.12
2018-09-09T18:22:37.079Z,101451.92
2018-09-09T18:25:03.211Z,101456.79
2018-09-09T18:27:29.189Z,101456.84
2018-09-09T18:29:55.177Z,101459.38
2018-09-09T18:32:21.140Z,101461.59
2018-09-09T18:34:47.198Z,101458.36
2018-09-09T18:37:13.151Z,101466.70
2018-09-09T18:39:39.148Z,101467.06
2018-09-09T18:42:05.124Z,101467.14
2018-09-09T18:44:31.220Z,101466.31
2018-09-09T18:46:57.175Z,101462.03
2018-09-09T18:49:23.255Z,101463.93
2018-09-09T18:51:49.275Z,101459.35
2018-09-09T18:54:15.261Z,101462.50
2018-09-09T18:56:41.321Z,101467.53
2018-09-09T18:59:07.436Z,101461.34
2018-09-09T19:01:33.474Z,101464.25
2018-09-09T19:03:59.444Z,101467.31
2018-09-09T19:06:25.409Z,101467.00
2018-09-09T19:08:51.488Z,101472.37
2018-09-09T19:11:17.477Z,101472.50
2018-09-09T19:13:43.464Z,101475.66
2018-09-09T19:16:09.481Z,101475.35
2018-09-09T19:18:35.459Z,101479.69
2018-09-09T19:21:01.432Z,101481.65
2018-09-09T19:23:27.393Z,101480.52
2018-09-09T19:25:53.532Z,101483.44
2018-09-09T19:28:19.625Z,101479.52
2018-09-09T19:30:45.605Z,101484.99
2018-09-09T19:33:11.750Z,101485.95
2018-09-09T19:35:37.722Z,101483.30
2018-09-09T19:38:03.702Z,101484.52
2018-09-09T19:40:29.669Z,101485.33
2018-09-09T19:42:55.629Z,101486.15
2018-09-09T19:45:21.599Z,101489.69
2018-09-09T19:47:47.543Z,101491.34
2018-09-09T19:50:14.240Z,101489.99
2018-09-09T19:52:40.205Z,101491.45
2018-09-09T19:55:06.183Z,101493.80
2018-09-09T19:57:32.143Z,101494.00
2018-09-09T19:59:58.121Z,101489.99
2018-09-09T20:02:24.093Z,101491.99
2018-09-09T20:04:50.062Z,101490.08
2018-09-09T20:07:16.072Z,101485.41
2018-09-09T20:09:42.057Z,101487.87
2018-09-09T20:12:08.040Z,101490.19
2018-09-09T20:14:34.072Z,101488.92
2018-09-09T20:17:00.052Z,101490.91
2018-09-09T20:19:26.016Z,101491.11
2018-09-09T20:21:52.039Z,101494.25
2018-09-09T20:24:18.007Z,101488.92
2018-09-09T20:26:44.020Z,101493.73
2018-09-09T20:29:10.010Z,101490.27
2018-09-09T20:31:35.987Z,101503.34
2018-09-09T20:34:01.960Z,101504.98
2018-09-09T20:36:27.920Z,101500.31
2018-09-09T20:38:54.010Z,101509.64
2018-09-09T20:41:20.833Z,101517.23
2018-09-09T20:43:46.804Z,101509.44
2018-09-09T20:46:12.863Z,101506.10
2018-09-09T20:48:38.930Z,101504.27
2018-09-09T20:51:04.837Z,101497.31
2018-09-09T20:53:30.805Z,101496.45
2018-09-09T20:55:56.779Z,101505.41
2018-09-09T20:58:22.729Z,101505.38
2018-09-09T21:00:48.698Z,101504.92
2018-09-09T21:03:14.648Z,101504.75
2018-09-09T21:05:40.592Z,101506.47
2018-09-09T21:08:06.613Z,101505.70
2018-09-09T21:10:32.641Z,101505.34
2018-09-09T21:12:58.666Z,101506.83
2018-09-09T21:15:24.628Z,101509.25
2018-09-09T21:17:50.639Z,101513.50
2018-09-09T21:20:16.586Z,101515.48
2018-09-09T21:22:42.551Z,101512.91
2018-09-09T21:25:08.488Z,101504.95
2018-09-09T21:27:34.461Z,101503.98
2018-09-09T21:30:00.404Z,101502.95
2018-09-09T21:32:26.374Z,101503.69
2018-09-09T21:34:52.327Z,101492.78
2018-09-09T21:37:18.324Z,101491.16
2018-09-09T21:39:44.292Z,101496.92
2018-09-09T21:42:10.270Z,101491.16
2018-09-09T21:44:36.311Z,101495.48
2018-09-09T21:47:02.253Z,101492.33
2018-09-09T21:49:28.202Z,101497.83
2018-09-09T21:51:54.156Z,101490.94
2018-09-09T21:54:20.108Z,101493.59
2018-09-09T21:56:46.047Z,101486.13
2018-09-09T21:59:12.003Z,101486.89
2018-09-09T22:01:37.953Z,101488.28
2018-09-09T22:04:03.920Z,101486.96
2018-09-09T22:06:29.881Z,101481.73
2018-09-09T22:08:55.847Z,101481.14
2018-09-09T22:11:21.800Z,101472.92
2018-09-09T22:13:47.755Z,101479.73
2018-09-09T22:16:13.731Z,101479.44
2018-09-09T22:18:39.728Z,101481.80
2018-09-09T22:21:05.688Z,101471.55
2018-09-09T22:23:31.683Z,101473.94
2018-09-09T22:25:57.577Z,101469.61
2018-09-09T22:28:23.544Z,101467.75
2018-09-09T22:30:49.536Z,101471.98
2018-09-09T22:33:15.488Z,101467.65
2018-09-09T22:35:41.451Z,101462.34
2018-09-09T22:38:07.400Z,101459.39
2018-09-09T22:40:33.373Z,101464.92
2018-09-09T22:42:59.328Z,101465.56
2018-09-09T22:45:25.273Z,101466.33
2018-09-09T22:47:51.228Z,101465.62
2018-09-09T22:50:17.332Z,101473.31
2018-09-09T22:52:43.286Z,101471.42
2018-09-09T22:55:09.234Z,101467.91
2018-09-09T22:57:35.200Z,101471.61
2018-09-09T23:00:01.144Z,101474.43
2018-09-09T23:02:27.102Z,101472.19
2018-09-09T23:04:53.047Z,101471.49
2018-09-09T23:07:19.028Z,101469.17
2018-09-09T23:09:44.972Z,101462.21
2018-09-09T23:12:10.944Z,101458.03
2018-09-09T23:14:36.963Z,101459.48
2018-09-09T23:17:02.964Z,101458.93
2018-09-09T23:19:28.916Z,101458.77
2018-09-09T23:21:54.867Z,101464.30
2018-09-09T23:24:20.824Z,101455.38
2018-09-09T23:26:46.769Z,101453.42
2018-09-09T23:29:12.800Z,101454.44
2018-09-09T23:31:38.751Z,101451.23
2018-09-09T23:34:04.708Z,101454.08
2018-09-09T23:36:30.659Z,101445.85
2018-09-09T23:38:56.647Z,101445.30
2018-09-09T23:41:22.644Z,101441.38
2018-09-09T23:43:48.594Z,101438.67
2018-09-09T23:46:14.544Z,101440.93
2018-09-09T23:48:40.488Z,101442.16
2018-09-09T23:51:06.551Z,101439.24
2018-09-09T23:53:32.507Z,101441.62
2018-09-09T23:55:58.453Z,101440.98
2018-09-09T23:58:24.397Z,101446.81
